sensor_id;sensor_type;location;lat;lon;timestamp;P1;durP1;ratioP1;P2;durP2;ratioP2
37937;SDS011;23763;48.130;11.602;2022-09-29T00:00:31;5.85;;;5.50;;
37937;SDS011;23763;48.130;11.602;2022-09-29T00:02:57;5.70;;;5.32;;
37937;SDS011;23763;48.130;11.602;2022-09-29T00:05:22;5.70;;;5.50;;
37937;SDS011;23763;48.130;11.602;2022-09-29T00:07:48;5.78;;;5.57;;
37937;SDS011;23763;48.130;11.602;2022-09-29T00:10:14;5.68;;;5.35;;
37937;SDS011;23763;48.130;11.602;2022-09-29T00:12:39;5.78;;;5.53;;
37937;SDS011;23763;48.130;11.602;2022-09-29T00:15:05;5.70;;;5.50;;
37937;SDS011;23763;48.130;11.602;2022-09-29T00:17:31;5.75;;;5.47;;
37937;SDS011;23763;48.130;11.602;2022-09-29T00:19:57;5.63;;;5.43;;
37937;SDS011;23763;48.130;11.602;2022-09-29T00:22:23;6.22;;;5.88;;
37937;SDS011;23763;48.130;11.602;2022-09-29T00:24:48;5.82;;;5.53;;
37937;SDS011;23763;48.130;11.602;2022-09-29T00:27:15;6.03;;;5.65;;
37937;SDS011;23763;48.130;11.602;2022-09-29T00:29:41;5.50;;;5.30;;
37937;SDS011;23763;48.130;11.602;2022-09-29T00:32:07;5.85;;;5.50;;
37937;SDS011;23763;48.130;11.602;2022-09-29T00:34:32;5.65;;;5.35;;
37937;SDS011;23763;48.130;11.602;2022-09-29T00:36:58;6.07;;;5.68;;
37937;SDS011;23763;48.130;11.602;2022-09-29T00:39:24;5.75;;;5.55;;
37937;SDS011;23763;48.130;11.602;2022-09-29T00:41:49;6.93;;;6.53;;
37937;SDS011;23763;48.130;11.602;2022-09-29T00:46:58;5.70;;;5.50;;
37937;SDS011;23763;48.130;11.602;2022-09-29T00:49:43;5.97;;;5.78;;
37937;SDS011;23763;48.130;11.602;2022-09-29T00:54:47;5.90;;;5.70;;
37937;SDS011;23763;48.130;11.602;2022-09-29T00:57:17;6.00;;;5.70;;
37937;SDS011;23763;48.130;11.602;2022-09-29T01:02:17;5.47;;;5.28;;
37937;SDS011;23763;48.130;11.602;2022-09-29T01:04:44;5.55;;;5.35;;
37937;SDS011;23763;48.130;11.602;2022-09-29T01:07:12;6.05;;;5.70;;
37937;SDS011;23763;48.130;11.602;2022-09-29T01:09:38;5.60;;;5.40;;
37937;SDS011;23763;48.130;11.602;2022-09-29T01:12:07;5.75;;;5.55;;
37937;SDS011;23763;48.130;11.602;2022-09-29T01:14:33;5.90;;;5.60;;
37937;SDS011;23763;48.130;11.602;2022-09-29T01:17:00;5.25;;;5.05;;
37937;SDS011;23763;48.130;11.602;2022-09-29T01:36:34;6.07;;;5.78;;
37937;SDS011;23763;48.130;11.602;2022-09-29T01:39:01;5.80;;;5.50;;
37937;SDS011;23763;48.130;11.602;2022-09-29T01:46:51;6.00;;;5.70;;
37937;SDS011;23763;48.130;11.602;2022-09-29T01:49:49;5.60;;;5.40;;
37937;SDS011;23763;48.130;11.602;2022-09-29T01:52:18;5.68;;;5.45;;
37937;SDS011;23763;48.130;11.602;2022-09-29T01:54:47;5.70;;;5.50;;
37937;SDS011;23763;48.130;11.602;2022-09-29T01:57:21;5.75;;;5.50;;
37937;SDS011;23763;48.130;11.602;2022-09-29T02:00:16;5.75;;;5.45;;
37937;SDS011;23763;48.130;11.602;2022-09-29T02:02:52;5.70;;;5.50;;
37937;SDS011;23763;48.130;11.602;2022-09-29T02:05:20;5.90;;;5.50;;
37937;SDS011;23763;48.130;11.602;2022-09-29T02:07:49;5.82;;;5.53;;
37937;SDS011;23763;48.130;11.602;2022-09-29T02:12:48;5.93;;;5.63;;
37937;SDS011;23763;48.130;11.602;2022-09-29T02:15:35;5.45;;;5.15;;
37937;SDS011;23763;48.130;11.602;2022-09-29T02:18:15;5.50;;;5.30;;
37937;SDS011;23763;48.130;11.602;2022-09-29T02:20:46;5.90;;;5.70;;
37937;SDS011;23763;48.130;11.602;2022-09-29T02:23:14;6.10;;;5.70;;
37937;SDS011;23763;48.130;11.602;2022-09-29T02:25:39;5.88;;;5.57;;
37937;SDS011;23763;48.130;11.602;2022-09-29T02:28:06;5.50;;;5.30;;
37937;SDS011;23763;48.130;11.602;2022-09-29T02:30:32;5.90;;;5.60;;
37937;SDS011;23763;48.130;11.602;2022-09-29T02:32:59;5.88;;;5.57;;
37937;SDS011;23763;48.130;11.602;2022-09-29T02:35:25;5.80;;;5.50;;
37937;SDS011;23763;48.130;11.602;2022-09-29T02:38:03;5.97;;;5.70;;
37937;SDS011;23763;48.130;11.602;2022-09-29T02:48:49;5.65;;;5.35;;
37937;SDS011;23763;48.130;11.602;2022-09-29T02:51:12;5.88;;;5.53;;
37937;SDS011;23763;48.130;11.602;2022-09-29T02:59:41;5.80;;;5.60;;
37937;SDS011;23763;48.130;11.602;2022-09-29T03:02:09;5.50;;;5.30;;
37937;SDS011;23763;48.130;11.602;2022-09-29T03:04:34;5.57;;;5.38;;
37937;SDS011;23763;48.130;11.602;2022-09-29T03:07:00;5.72;;;5.53;;
37937;SDS011;23763;48.130;11.602;2022-09-29T03:09:26;5.82;;;5.63;;
37937;SDS011;23763;48.130;11.602;2022-09-29T03:11:52;6.00;;;5.50;;
37937;SDS011;23763;48.130;11.602;2022-09-29T03:14:17;5.53;;;5.32;;
37937;SDS011;23763;48.130;11.602;2022-09-29T03:16:43;5.95;;;5.75;;
37937;SDS011;23763;48.130;11.602;2022-09-29T03:19:09;5.15;;;4.95;;
37937;SDS011;23763;48.130;11.602;2022-09-29T03:21:34;5.63;;;5.43;;
37937;SDS011;23763;48.130;11.602;2022-09-29T03:24:00;5.70;;;5.50;;
37937;SDS011;23763;48.130;11.602;2022-09-29T03:26:26;5.60;;;5.40;;
37937;SDS011;23763;48.130;11.602;2022-09-29T03:28:52;5.70;;;5.50;;
37937;SDS011;23763;48.130;11.602;2022-09-29T03:31:17;5.95;;;5.55;;
37937;SDS011;23763;48.130;11.602;2022-09-29T03:33:43;5.95;;;5.75;;
37937;SDS011;23763;48.130;11.602;2022-09-29T03:36:09;6.13;;;5.93;;
37937;SDS011;23763;48.130;11.602;2022-09-29T03:38:35;6.28;;;5.88;;
37937;SDS011;23763;48.130;11.602;2022-09-29T03:41:01;5.93;;;5.55;;
37937;SDS011;23763;48.130;11.602;2022-09-29T03:43:27;5.90;;;5.70;;
37937;SDS011;23763;48.130;11.602;2022-09-29T03:45:53;6.07;;;5.88;;
37937;SDS011;23763;48.130;11.602;2022-09-29T03:48:20;5.85;;;5.65;;
37937;SDS011;23763;48.130;11.602;2022-09-29T03:50:47;5.80;;;5.60;;
37937;SDS011;23763;48.130;11.602;2022-09-29T03:53:14;6.07;;;5.88;;
37937;SDS011;23763;48.130;11.602;2022-09-29T03:55:40;5.88;;;5.47;;
37937;SDS011;23763;48.130;11.602;2022-09-29T03:58:10;6.20;;;5.90;;
37937;SDS011;23763;48.130;11.602;2022-09-29T04:00:35;5.65;;;5.45;;
37937;SDS011;23763;48.130;11.602;2022-09-29T04:03:01;5.82;;;5.63;;
37937;SDS011;23763;48.130;11.602;2022-09-29T04:05:28;5.75;;;5.55;;
37937;SDS011;23763;48.130;11.602;2022-09-29T04:07:54;5.70;;;5.50;;
37937;SDS011;23763;48.130;11.602;2022-09-29T04:10:20;6.13;;;5.93;;
37937;SDS011;23763;48.130;11.602;2022-09-29T04:12:46;5.72;;;5.53;;
37937;SDS011;23763;48.130;11.602;2022-09-29T04:15:11;6.15;;;5.90;;
37937;SDS011;23763;48.130;11.602;2022-09-29T04:17:37;5.75;;;5.55;;
37937;SDS011;23763;48.130;11.602;2022-09-29T04:20:03;6.00;;;5.70;;
37937;SDS011;23763;48.130;11.602;2022-09-29T04:22:28;6.25;;;5.88;;
37937;SDS011;23763;48.130;11.602;2022-09-29T04:24:54;5.75;;;5.55;;
37937;SDS011;23763;48.130;11.602;2022-09-29T04:27:20;6.30;;;6.00;;
37937;SDS011;23763;48.130;11.602;2022-09-29T04:29:46;6.38;;;6.03;;
37937;SDS011;23763;48.130;11.602;2022-09-29T04:32:12;6.10;;;5.75;;
37937;SDS011;23763;48.130;11.602;2022-09-29T04:34:43;5.93;;;5.70;;
37937;SDS011;23763;48.130;11.602;2022-09-29T04:37:17;7.07;;;6.60;;
37937;SDS011;23763;48.130;11.602;2022-09-29T04:39:43;6.40;;;6.10;;
37937;SDS011;23763;48.130;11.602;2022-09-29T04:42:08;6.20;;;6.00;;
37937;SDS011;23763;48.130;11.602;2022-09-29T04:44:34;6.45;;;6.15;;
37937;SDS011;23763;48.130;11.602;2022-09-29T04:47:00;6.10;;;5.82;;
37937;SDS011;23763;48.130;11.602;2022-09-29T04:49:25;6.30;;;6.00;;
37937;SDS011;23763;48.130;11.602;2022-09-29T04:51:51;5.95;;;5.75;;
37937;SDS011;23763;48.130;11.602;2022-09-29T04:54:17;6.30;;;6.00;;
37937;SDS011;23763;48.130;11.602;2022-09-29T04:56:42;6.20;;;5.90;;
37937;SDS011;23763;48.130;11.602;2022-09-29T04:59:08;6.60;;;6.30;;
37937;SDS011;23763;48.130;11.602;2022-09-29T05:01:34;7.03;;;6.57;;
37937;SDS011;23763;48.130;11.602;2022-09-29T05:04:00;6.60;;;6.30;;
37937;SDS011;23763;48.130;11.602;2022-09-29T05:06:26;6.60;;;6.30;;
37937;SDS011;23763;48.130;11.602;2022-09-29T05:08:52;6.93;;;6.60;;
37937;SDS011;23763;48.130;11.602;2022-09-29T05:11:18;6.47;;;6.25;;
37937;SDS011;23763;48.130;11.602;2022-09-29T05:13:46;6.75;;;6.30;;
37937;SDS011;23763;48.130;11.602;2022-09-29T05:16:14;6.50;;;6.20;;
37937;SDS011;23763;48.130;11.602;2022-09-29T05:18:40;6.70;;;6.10;;
37937;SDS011;23763;48.130;11.602;2022-09-29T05:21:06;6.43;;;6.10;;
37937;SDS011;23763;48.130;11.602;2022-09-29T05:23:32;6.65;;;6.35;;
37937;SDS011;23763;48.130;11.602;2022-09-29T05:26:03;7.30;;;6.60;;
37937;SDS011;23763;48.130;11.602;2022-09-29T05:28:31;7.28;;;6.80;;
37937;SDS011;23763;48.130;11.602;2022-09-29T05:31:03;6.85;;;6.55;;
37937;SDS011;23763;48.130;11.602;2022-09-29T05:33:31;6.13;;;5.82;;
37937;SDS011;23763;48.130;11.602;2022-09-29T05:35:57;5.72;;;5.53;;
37937;SDS011;23763;48.130;11.602;2022-09-29T05:38:23;7.47;;;7.00;;
37937;SDS011;23763;48.130;11.602;2022-09-29T05:40:50;6.28;;;6.00;;
37937;SDS011;23763;48.130;11.602;2022-09-29T05:43:17;5.90;;;5.70;;
37937;SDS011;23763;48.130;11.602;2022-09-29T05:45:43;5.97;;;5.68;;
37937;SDS011;23763;48.130;11.602;2022-09-29T05:48:09;6.35;;;5.95;;
37937;SDS011;23763;48.130;11.602;2022-09-29T05:50:34;6.85;;;6.43;;
37937;SDS011;23763;48.130;11.602;2022-09-29T05:53:08;6.05;;;5.85;;
37937;SDS011;23763;48.130;11.602;2022-09-29T05:55:35;7.13;;;6.53;;
37937;SDS011;23763;48.130;11.602;2022-09-29T05:58:01;7.25;;;6.60;;
37937;SDS011;23763;48.130;11.602;2022-09-29T06:00:27;8.18;;;7.60;;
37937;SDS011;23763;48.130;11.602;2022-09-29T06:02:52;7.05;;;6.75;;
37937;SDS011;23763;48.130;11.602;2022-09-29T06:05:18;6.93;;;6.53;;
37937;SDS011;23763;48.130;11.602;2022-09-29T06:07:43;7.35;;;6.95;;
37937;SDS011;23763;48.130;11.602;2022-09-29T06:10:09;6.65;;;6.35;;
37937;SDS011;23763;48.130;11.602;2022-09-29T06:12:35;7.38;;;6.88;;
37937;SDS011;23763;48.130;11.602;2022-09-29T06:15:02;6.97;;;6.57;;
37937;SDS011;23763;48.130;11.602;2022-09-29T06:17:28;7.10;;;6.70;;
37937;SDS011;23763;48.130;11.602;2022-09-29T06:19:54;6.70;;;6.40;;
37937;SDS011;23763;48.130;11.602;2022-09-29T06:22:20;7.20;;;6.57;;
37937;SDS011;23763;48.130;11.602;2022-09-29T06:24:45;6.70;;;6.40;;
37937;SDS011;23763;48.130;11.602;2022-09-29T06:27:11;7.45;;;6.93;;
37937;SDS011;23763;48.130;11.602;2022-09-29T06:29:36;8.73;;;6.53;;
37937;SDS011;23763;48.130;11.602;2022-09-29T06:32:02;6.55;;;6.15;;
37937;SDS011;23763;48.130;11.602;2022-09-29T06:34:27;6.85;;;6.35;;
37937;SDS011;23763;48.130;11.602;2022-09-29T06:36:53;6.82;;;6.45;;
37937;SDS011;23763;48.130;11.602;2022-09-29T06:39:37;6.60;;;6.30;;
37937;SDS011;23763;48.130;11.602;2022-09-29T06:42:03;7.30;;;6.80;;
37937;SDS011;23763;48.130;11.602;2022-09-29T06:44:29;6.75;;;6.35;;
37937;SDS011;23763;48.130;11.602;2022-09-29T06:46:55;6.90;;;6.40;;
37937;SDS011;23763;48.130;11.602;2022-09-29T06:49:21;6.38;;;6.03;;
37937;SDS011;23763;48.130;11.602;2022-09-29T06:51:48;6.45;;;5.72;;
37937;SDS011;23763;48.130;11.602;2022-09-29T06:54:18;6.80;;;6.28;;
37937;SDS011;23763;48.130;11.602;2022-09-29T06:56:46;7.28;;;6.78;;
37937;SDS011;23763;48.130;11.602;2022-09-29T06:59:14;7.00;;;6.60;;
37937;SDS011;23763;48.130;11.602;2022-09-29T07:01:41;6.65;;;6.10;;
37937;SDS011;23763;48.130;11.602;2022-09-29T07:04:06;6.70;;;6.20;;
37937;SDS011;23763;48.130;11.602;2022-09-29T07:06:32;6.75;;;6.30;;
37937;SDS011;23763;48.130;11.602;2022-09-29T07:08:58;7.72;;;6.95;;
37937;SDS011;23763;48.130;11.602;2022-09-29T07:11:27;9.32;;;8.52;;
37937;SDS011;23763;48.130;11.602;2022-09-29T07:13:53;6.63;;;6.25;;
37937;SDS011;23763;48.130;11.602;2022-09-29T07:16:19;6.75;;;6.35;;
37937;SDS011;23763;48.130;11.602;2022-09-29T07:18:47;7.07;;;6.40;;
37937;SDS011;23763;48.130;11.602;2022-09-29T07:21:13;6.90;;;6.30;;
37937;SDS011;23763;48.130;11.602;2022-09-29T07:23:42;6.75;;;6.45;;
37937;SDS011;23763;48.130;11.602;2022-09-29T07:26:07;7.15;;;6.43;;
37937;SDS011;23763;48.130;11.602;2022-09-29T07:28:33;10.02;;;9.13;;
37937;SDS011;23763;48.130;11.602;2022-09-29T07:31:00;10.85;;;8.32;;
37937;SDS011;23763;48.130;11.602;2022-09-29T07:33:27;8.75;;;8.00;;
37937;SDS011;23763;48.130;11.602;2022-09-29T07:35:54;7.05;;;6.75;;
37937;SDS011;23763;48.130;11.602;2022-09-29T07:38:19;7.40;;;6.90;;
37937;SDS011;23763;48.130;11.602;2022-09-29T07:40:45;7.20;;;6.80;;
37937;SDS011;23763;48.130;11.602;2022-09-29T07:43:11;7.05;;;6.70;;
37937;SDS011;23763;48.130;11.602;2022-09-29T07:45:36;7.50;;;7.00;;
37937;SDS011;23763;48.130;11.602;2022-09-29T07:48:02;6.80;;;6.30;;
37937;SDS011;23763;48.130;11.602;2022-09-29T07:50:28;6.28;;;5.68;;
37937;SDS011;23763;48.130;11.602;2022-09-29T07:52:53;6.78;;;6.28;;
37937;SDS011;23763;48.130;11.602;2022-09-29T07:55:19;6.57;;;6.10;;
37937;SDS011;23763;48.130;11.602;2022-09-29T07:57:48;5.70;;;5.50;;
37937;SDS011;23763;48.130;11.602;2022-09-29T08:00:13;6.60;;;5.72;;
37937;SDS011;23763;48.130;11.602;2022-09-29T08:02:41;5.70;;;5.50;;
37937;SDS011;23763;48.130;11.602;2022-09-29T08:05:07;6.07;;;5.70;;
37937;SDS011;23763;48.130;11.602;2022-09-29T08:07:33;6.47;;;6.03;;
37937;SDS011;23763;48.130;11.602;2022-09-29T08:09:59;6.15;;;5.90;;
37937;SDS011;23763;48.130;11.602;2022-09-29T08:12:25;6.07;;;5.78;;
37937;SDS011;23763;48.130;11.602;2022-09-29T08:14:51;6.60;;;6.30;;
37937;SDS011;23763;48.130;11.602;2022-09-29T08:17:16;6.30;;;6.00;;
37937;SDS011;23763;48.130;11.602;2022-09-29T08:19:42;6.72;;;6.38;;
37937;SDS011;23763;48.130;11.602;2022-09-29T08:22:08;6.35;;;6.05;;
37937;SDS011;23763;48.130;11.602;2022-09-29T08:24:33;5.93;;;5.63;;
37937;SDS011;23763;48.130;11.602;2022-09-29T08:27:01;6.18;;;5.68;;
37937;SDS011;23763;48.130;11.602;2022-09-29T08:29:29;5.90;;;5.70;;
37937;SDS011;23763;48.130;11.602;2022-09-29T08:31:54;6.57;;;6.07;;
37937;SDS011;23763;48.130;11.602;2022-09-29T08:34:20;7.85;;;7.25;;
37937;SDS011;23763;48.130;11.602;2022-09-29T08:36:46;6.32;;;5.90;;
37937;SDS011;23763;48.130;11.602;2022-09-29T08:39:12;6.15;;;5.85;;
37937;SDS011;23763;48.130;11.602;2022-09-29T08:46:47;5.80;;;5.60;;
37937;SDS011;23763;48.130;11.602;2022-09-29T08:49:21;5.90;;;5.68;;
37937;SDS011;23763;48.130;11.602;2022-09-29T08:51:52;5.85;;;5.65;;
37937;SDS011;23763;48.130;11.602;2022-09-29T08:54:24;6.35;;;6.05;;
37937;SDS011;23763;48.130;11.602;2022-09-29T08:56:57;6.05;;;5.65;;
37937;SDS011;23763;48.130;11.602;2022-09-29T08:59:23;5.85;;;5.55;;
37937;SDS011;23763;48.130;11.602;2022-09-29T09:07:56;5.65;;;5.40;;
37937;SDS011;23763;48.130;11.602;2022-09-29T09:10:38;5.70;;;5.50;;
37937;SDS011;23763;48.130;11.602;2022-09-29T09:21:46;6.10;;;5.50;;
37937;SDS011;23763;48.130;11.602;2022-09-29T09:24:16;5.60;;;5.30;;
37937;SDS011;23763;48.130;11.602;2022-09-29T09:26:52;6.18;;;5.88;;
37937;SDS011;23763;48.130;11.602;2022-09-29T09:32:20;6.07;;;5.78;;
37937;SDS011;23763;48.130;11.602;2022-09-29T09:35:05;6.32;;;6.05;;
37937;SDS011;23763;48.130;11.602;2022-09-29T09:37:45;5.80;;;5.50;;
37937;SDS011;23763;48.130;11.602;2022-09-29T09:40:16;6.20;;;6.00;;
37937;SDS011;23763;48.130;11.602;2022-09-29T09:43:06;6.00;;;5.80;;
37937;SDS011;23763;48.130;11.602;2022-09-29T09:46:36;6.32;;;6.00;;
37937;SDS011;23763;48.130;11.602;2022-09-29T09:48:51;5.97;;;5.72;;
37937;SDS011;23763;48.130;11.602;2022-09-29T09:54:35;6.30;;;5.90;;
37937;SDS011;23763;48.130;11.602;2022-09-29T10:02:26;6.03;;;5.72;;
37937;SDS011;23763;48.130;11.602;2022-09-29T10:04:55;6.28;;;6.05;;
37937;SDS011;23763;48.130;11.602;2022-09-29T10:07:24;6.20;;;5.90;;
37937;SDS011;23763;48.130;11.602;2022-09-29T10:09:52;6.43;;;6.13;;
37937;SDS011;23763;48.130;11.602;2022-09-29T10:12:19;6.25;;;5.95;;
37937;SDS011;23763;48.130;11.602;2022-09-29T10:15:03;6.40;;;6.00;;
37937;SDS011;23763;48.130;11.602;2022-09-29T10:17:41;6.40;;;6.00;;
37937;SDS011;23763;48.130;11.602;2022-09-29T10:20:10;5.95;;;5.72;;
37937;SDS011;23763;48.130;11.602;2022-09-29T10:22:36;6.50;;;6.20;;
37937;SDS011;23763;48.130;11.602;2022-09-29T10:25:18;5.75;;;5.45;;
37937;SDS011;23763;48.130;11.602;2022-09-29T10:27:48;6.13;;;5.82;;
37937;SDS011;23763;48.130;11.602;2022-09-29T10:30:19;6.10;;;5.90;;
37937;SDS011;23763;48.130;11.602;2022-09-29T10:32:57;6.40;;;6.15;;
37937;SDS011;23763;48.130;11.602;2022-09-29T10:35:35;6.00;;;5.70;;
37937;SDS011;23763;48.130;11.602;2022-09-29T10:38:07;5.85;;;5.55;;
37937;SDS011;23763;48.130;11.602;2022-09-29T10:43:25;6.38;;;6.13;;
37937;SDS011;23763;48.130;11.602;2022-09-29T10:46:33;6.57;;;6.30;;
37937;SDS011;23763;48.130;11.602;2022-09-29T10:51:55;6.97;;;6.57;;
37937;SDS011;23763;48.130;11.602;2022-09-29T10:54:22;6.78;;;6.47;;
37937;SDS011;23763;48.130;11.602;2022-09-29T10:56:50;6.82;;;6.43;;
37937;SDS011;23763;48.130;11.602;2022-09-29T10:59:17;6.75;;;6.15;;
37937;SDS011;23763;48.130;11.602;2022-09-29T11:01:47;5.95;;;5.65;;
37937;SDS011;23763;48.130;11.602;2022-09-29T11:04:20;5.82;;;5.63;;
37937;SDS011;23763;48.130;11.602;2022-09-29T11:06:50;6.03;;;5.72;;
37937;SDS011;23763;48.130;11.602;2022-09-29T11:17:00;6.25;;;5.95;;
37937;SDS011;23763;48.130;11.602;2022-09-29T11:19:42;6.97;;;6.60;;
37937;SDS011;23763;48.130;11.602;2022-09-29T11:25:02;6.57;;;6.28;;
37937;SDS011;23763;48.130;11.602;2022-09-29T11:30:22;6.40;;;6.00;;
37937;SDS011;23763;48.130;11.602;2022-09-29T11:38:34;6.80;;;6.40;;
37937;SDS011;23763;48.130;11.602;2022-09-29T11:41:26;6.57;;;6.05;;
37937;SDS011;23763;48.130;11.602;2022-09-29T11:44:03;6.82;;;6.22;;
37937;SDS011;23763;48.130;11.602;2022-09-29T11:57:53;6.15;;;5.95;;
37937;SDS011;23763;48.130;11.602;2022-09-29T12:01:02;6.20;;;5.80;;
37937;SDS011;23763;48.130;11.602;2022-09-29T12:08:52;6.10;;;5.78;;
37937;SDS011;23763;48.130;11.602;2022-09-29T12:11:46;6.13;;;5.93;;
37937;SDS011;23763;48.130;11.602;2022-09-29T12:14:25;6.03;;;5.78;;
37937;SDS011;23763;48.130;11.602;2022-09-29T12:17:15;6.15;;;5.85;;
37937;SDS011;23763;48.130;11.602;2022-09-29T12:19:43;6.22;;;5.85;;
37937;SDS011;23763;48.130;11.602;2022-09-29T12:22:14;6.00;;;5.80;;
37937;SDS011;23763;48.130;11.602;2022-09-29T12:24:44;6.38;;;5.95;;
37937;SDS011;23763;48.130;11.602;2022-09-29T12:29:58;6.15;;;5.85;;
37937;SDS011;23763;48.130;11.602;2022-09-29T12:32:27;6.65;;;6.10;;
37937;SDS011;23763;48.130;11.602;2022-09-29T12:35:16;6.50;;;6.13;;
37937;SDS011;23763;48.130;11.602;2022-09-29T12:38:36;6.47;;;6.13;;
37937;SDS011;23763;48.130;11.602;2022-09-29T12:41:03;6.32;;;6.03;;
37937;SDS011;23763;48.130;11.602;2022-09-29T12:43:44;6.40;;;6.10;;
37937;SDS011;23763;48.130;11.602;2022-09-29T12:51:50;6.65;;;6.25;;
37937;SDS011;23763;48.130;11.602;2022-09-29T12:54:24;6.60;;;6.30;;
37937;SDS011;23763;48.130;11.602;2022-09-29T12:56:57;6.25;;;5.85;;
37937;SDS011;23763;48.130;11.602;2022-09-29T12:59:38;6.38;;;5.97;;
37937;SDS011;23763;48.130;11.602;2022-09-29T13:13:45;6.32;;;6.03;;
37937;SDS011;23763;48.130;11.602;2022-09-29T13:19:28;7.03;;;6.60;;
37937;SDS011;23763;48.130;11.602;2022-09-29T13:27:38;7.15;;;6.68;;
37937;SDS011;23763;48.130;11.602;2022-09-29T13:30:18;6.80;;;6.40;;
37937;SDS011;23763;48.130;11.602;2022-09-29T13:32:50;6.47;;;6.18;;
37937;SDS011;23763;48.130;11.602;2022-09-29T13:35:38;7.13;;;6.80;;
37937;SDS011;23763;48.130;11.602;2022-09-29T13:38:13;6.80;;;6.28;;
37937;SDS011;23763;48.130;11.602;2022-09-29T13:54:47;7.05;;;6.60;;
37937;SDS011;23763;48.130;11.602;2022-09-29T13:57:21;7.22;;;6.93;;
37937;SDS011;23763;48.130;11.602;2022-09-29T14:02:31;8.23;;;7.72;;
37937;SDS011;23763;48.130;11.602;2022-09-29T14:04:58;7.28;;;6.80;;
37937;SDS011;23763;48.130;11.602;2022-09-29T14:07:38;7.35;;;7.05;;
37937;SDS011;23763;48.130;11.602;2022-09-29T14:15:25;7.60;;;7.20;;
37937;SDS011;23763;48.130;11.602;2022-09-29T14:18:01;13.05;;;12.02;;
37937;SDS011;23763;48.130;11.602;2022-09-29T14:20:31;7.47;;;7.07;;
37937;SDS011;23763;48.130;11.602;2022-09-29T14:28:10;7.45;;;6.85;;
37937;SDS011;23763;48.130;11.602;2022-09-29T14:30:53;7.35;;;6.85;;
37937;SDS011;23763;48.130;11.602;2022-09-29T14:33:22;7.78;;;7.38;;
37937;SDS011;23763;48.130;11.602;2022-09-29T14:36:11;7.28;;;6.78;;
37937;SDS011;23763;48.130;11.602;2022-09-29T14:38:40;10.05;;;9.35;;
37937;SDS011;23763;48.130;11.602;2022-09-29T14:46:12;7.07;;;6.68;;
37937;SDS011;23763;48.130;11.602;2022-09-29T14:49:46;7.40;;;7.00;;
37937;SDS011;23763;48.130;11.602;2022-09-29T15:00:19;9.20;;;8.50;;
37937;SDS011;23763;48.130;11.602;2022-09-29T15:02:47;9.05;;;8.35;;
37937;SDS011;23763;48.130;11.602;2022-09-29T15:05:23;9.20;;;8.60;;
37937;SDS011;23763;48.130;11.602;2022-09-29T15:07:53;9.50;;;8.80;;
37937;SDS011;23763;48.130;11.602;2022-09-29T15:10:21;10.05;;;9.35;;
37937;SDS011;23763;48.130;11.602;2022-09-29T15:12:52;9.23;;;8.68;;
37937;SDS011;23763;48.130;11.602;2022-09-29T15:15:38;10.13;;;9.43;;
37937;SDS011;23763;48.130;11.602;2022-09-29T15:21:00;9.38;;;8.88;;
37937;SDS011;23763;48.130;11.602;2022-09-29T15:23:44;9.68;;;9.18;;
37937;SDS011;23763;48.130;11.602;2022-09-29T15:26:21;10.82;;;10.00;;
37937;SDS011;23763;48.130;11.602;2022-09-29T15:28:49;9.73;;;9.23;;
37937;SDS011;23763;48.130;11.602;2022-09-29T15:31:16;10.60;;;10.00;;
37937;SDS011;23763;48.130;11.602;2022-09-29T15:33:43;10.63;;;9.90;;
37937;SDS011;23763;48.130;11.602;2022-09-29T15:38:42;10.70;;;10.20;;
37937;SDS011;23763;48.130;11.602;2022-09-29T15:43:54;10.30;;;9.80;;
37937;SDS011;23763;48.130;11.602;2022-09-29T15:47:07;10.80;;;10.30;;
37937;SDS011;23763;48.130;11.602;2022-09-29T15:49:18;10.50;;;9.95;;
37937;SDS011;23763;48.130;11.602;2022-09-29T15:54:32;10.65;;;10.05;;
37937;SDS011;23763;48.130;11.602;2022-09-29T16:05:20;10.93;;;10.23;;
37937;SDS011;23763;48.130;11.602;2022-09-29T16:07:47;10.50;;;9.90;;
37937;SDS011;23763;48.130;11.602;2022-09-29T16:10:50;10.98;;;10.30;;
37937;SDS011;23763;48.130;11.602;2022-09-29T16:13:20;10.98;;;10.27;;
37937;SDS011;23763;48.130;11.602;2022-09-29T16:15:49;11.15;;;10.45;;
37937;SDS011;23763;48.130;11.602;2022-09-29T16:18:22;11.05;;;10.38;;
37937;SDS011;23763;48.130;11.602;2022-09-29T16:20:53;11.13;;;10.52;;
37937;SDS011;23763;48.130;11.602;2022-09-29T16:23:27;11.88;;;11.07;;
37937;SDS011;23763;48.130;11.602;2022-09-29T16:31:34;17.30;;;15.60;;
37937;SDS011;23763;48.130;11.602;2022-09-29T16:34:04;15.40;;;13.80;;
37937;SDS011;23763;48.130;11.602;2022-09-29T16:36:46;14.45;;;13.27;;
37937;SDS011;23763;48.130;11.602;2022-09-29T16:39:13;12.75;;;11.85;;
37937;SDS011;23763;48.130;11.602;2022-09-29T16:41:40;10.90;;;10.27;;
37937;SDS011;23763;48.130;11.602;2022-09-29T16:46:48;12.68;;;11.88;;
37937;SDS011;23763;48.130;11.602;2022-09-29T16:49:20;11.85;;;11.05;;
37937;SDS011;23763;48.130;11.602;2022-09-29T16:51:49;11.98;;;11.23;;
37937;SDS011;23763;48.130;11.602;2022-09-29T16:54:18;13.70;;;12.80;;
37937;SDS011;23763;48.130;11.602;2022-09-29T16:56:48;17.85;;;16.15;;
37937;SDS011;23763;48.130;11.602;2022-09-29T16:59:33;14.60;;;13.45;;
37937;SDS011;23763;48.130;11.602;2022-09-29T17:01:58;14.07;;;13.07;;
37937;SDS011;23763;48.130;11.602;2022-09-29T17:04:24;11.90;;;11.20;;
37937;SDS011;23763;48.130;11.602;2022-09-29T17:06:50;13.02;;;12.02;;
37937;SDS011;23763;48.130;11.602;2022-09-29T17:09:26;10.98;;;10.15;;
37937;SDS011;23763;48.130;11.602;2022-09-29T17:11:51;11.15;;;10.45;;
37937;SDS011;23763;48.130;11.602;2022-09-29T17:14:17;10.73;;;10.13;;
37937;SDS011;23763;48.130;11.602;2022-09-29T17:16:45;10.90;;;10.30;;
37937;SDS011;23763;48.130;11.602;2022-09-29T17:19:11;10.52;;;9.90;;
37937;SDS011;23763;48.130;11.602;2022-09-29T17:21:37;10.32;;;9.73;;
37937;SDS011;23763;48.130;11.602;2022-09-29T17:24:02;9.85;;;9.35;;
37937;SDS011;23763;48.130;11.602;2022-09-29T17:26:42;11.07;;;10.27;;
37937;SDS011;23763;48.130;11.602;2022-09-29T17:29:28;33.58;;;27.13;;
37937;SDS011;23763;48.130;11.602;2022-09-29T17:31:53;32.10;;;25.02;;
37937;SDS011;23763;48.130;11.602;2022-09-29T17:34:19;22.42;;;19.73;;
37937;SDS011;23763;48.130;11.602;2022-09-29T17:36:49;18.52;;;16.67;;
37937;SDS011;23763;48.130;11.602;2022-09-29T17:39:16;14.93;;;13.73;;
37937;SDS011;23763;48.130;11.602;2022-09-29T17:41:41;11.77;;;10.98;;
37937;SDS011;23763;48.130;11.602;2022-09-29T17:44:07;15.52;;;14.32;;
37937;SDS011;23763;48.130;11.602;2022-09-29T17:46:33;18.08;;;16.35;;
37937;SDS011;23763;48.130;11.602;2022-09-29T17:49:02;13.20;;;12.20;;
37937;SDS011;23763;48.130;11.602;2022-09-29T17:51:28;11.73;;;11.02;;
37937;SDS011;23763;48.130;11.602;2022-09-29T17:53:54;11.55;;;10.65;;
37937;SDS011;23763;48.130;11.602;2022-09-29T17:56:21;12.23;;;11.32;;
37937;SDS011;23763;48.130;11.602;2022-09-29T17:58:51;14.13;;;13.13;;
37937;SDS011;23763;48.130;11.602;2022-09-29T18:01:18;11.80;;;11.05;;
37937;SDS011;23763;48.130;11.602;2022-09-29T18:03:46;14.07;;;12.98;;
37937;SDS011;23763;48.130;11.602;2022-09-29T18:06:18;18.45;;;16.65;;
37937;SDS011;23763;48.130;11.602;2022-09-29T18:08:48;13.57;;;12.48;;
37937;SDS011;23763;48.130;11.602;2022-09-29T18:11:16;11.82;;;11.02;;
37937;SDS011;23763;48.130;11.602;2022-09-29T18:13:43;13.80;;;12.80;;
37937;SDS011;23763;48.130;11.602;2022-09-29T18:16:10;12.68;;;11.77;;
37937;SDS011;23763;48.130;11.602;2022-09-29T18:18:40;10.88;;;10.20;;
37937;SDS011;23763;48.130;11.602;2022-09-29T18:21:06;10.75;;;10.05;;
37937;SDS011;23763;48.130;11.602;2022-09-29T18:23:32;9.15;;;8.65;;